createdAt,value
2018-07-10T00:00:14.957Z,66.04
2018-07-10T00:01:14.944Z,66.91
2018-07-10T00:02:14.950Z,66.24
2018-07-10T00:03:14.953Z,66.42
2018-07-10T00:04:14.944Z,66.14
2018-07-10T00:05:14.942Z,65.85
2018-07-10T00:06:14.934Z,66.04
2018-07-10T00:07:14.931Z,66.68
2018-07-10T00:08:14.934Z,65.75
2018-07-10T00:09:14.932Z,65.75
2018-07-10T00:10:14.926Z,65.85
2018-07-10T00:11:14.926Z,65.43
2018-07-10T00:12:14.978Z,66.97
2018-07-10T00:13:14.920Z,67.35
2018-07-10T00:14:14.920Z,67.55
2018-07-10T00:15:14.922Z,66.30
2018-07-10T00:16:14.913Z,65.81
2018-07-10T00:17:14.915Z,65.63
2018-07-10T00:18:14.909Z,66.97
2018-07-10T00:19:14.923Z,65.81
2018-07-10T00:20:14.910Z,65.63
2018-07-10T00:21:14.908Z,65.81
2018-07-10T00:22:14.903Z,66.68
2018-07-10T00:23:14.906Z,68.03
2018-07-10T00:24:14.901Z,67.74
2018-07-10T00:25:14.903Z,67.74
2018-07-10T00:26:14.893Z,68.32
2018-07-10T00:27:14.895Z,68.60
2018-07-10T00:28:14.889Z,68.80
2018-07-10T00:29:14.895Z,68.60
2018-07-10T00:30:14.884Z,68.86
2018-07-10T00:31:14.883Z,69.09
2018-07-10T00:32:14.883Z,69.67
2018-07-10T00:33:14.880Z,70.15
2018-07-10T00:34:14.877Z,69.67
2018-07-10T00:35:14.876Z,70.24
2018-07-10T00:36:14.872Z,70.05
2018-07-10T00:37:14.872Z,69.28
2018-07-10T00:38:14.870Z,68.70
2018-07-10T00:39:14.868Z,67.93
2018-07-10T00:40:14.864Z,68.22
2018-07-10T00:41:14.861Z,67.93
2018-07-10T00:42:14.859Z,66.97
2018-07-10T00:43:14.855Z,66.39
2018-07-10T00:44:14.854Z,66.58
2018-07-10T00:45:14.870Z,68.13
2018-07-10T00:46:14.851Z,66.88
2018-07-10T00:47:14.852Z,65.14
2018-07-10T00:48:14.845Z,65.14
2018-07-10T00:49:14.849Z,66.10
2018-07-10T00:50:14.847Z,65.33
2018-07-10T00:51:14.838Z,65.01
2018-07-10T00:52:14.848Z,66.20
2018-07-10T00:53:14.839Z,65.81
2018-07-10T00:54:14.831Z,65.53
2018-07-10T00:55:14.836Z,65.20
2018-07-10T00:56:14.824Z,64.53
2018-07-10T00:57:14.834Z,64.86
2018-07-10T00:58:14.820Z,64.82
2018-07-10T00:59:14.823Z,65.40
2018-07-10T01:00:14.825Z,65.69
2018-07-10T01:01:14.810Z,65.78
2018-07-10T01:02:14.816Z,65.01
2018-07-10T01:03:14.805Z,64.73
2018-07-10T01:04:14.804Z,64.34
2018-07-10T01:05:14.804Z,63.09
2018-07-10T01:06:14.798Z,62.71
2018-07-10T01:07:14.799Z,64.92
2018-07-10T01:08:14.793Z,63.76
2018-07-10T01:09:14.787Z,64.25
2018-07-10T01:10:14.787Z,63.95
2018-07-10T01:11:14.789Z,64.53
2018-07-10T01:12:14.788Z,64.15
2018-07-10T01:13:14.784Z,64.15
2018-07-10T01:14:14.778Z,63.60
2018-07-10T01:15:14.775Z,64.63
2018-07-10T01:16:14.766Z,63.95
2018-07-10T01:17:14.765Z,63.51
2018-07-10T01:18:14.762Z,63.99
2018-07-10T01:19:14.766Z,63.86
2018-07-10T01:20:14.760Z,64.47
2018-07-10T01:21:14.750Z,63.89
2018-07-10T01:22:14.752Z,64.92
2018-07-10T01:23:14.754Z,63.31
2018-07-10T01:24:14.744Z,64.25
2018-07-10T01:25:14.749Z,64.08
2018-07-10T01:26:14.741Z,64.86
2018-07-10T01:27:14.734Z,64.25
2018-07-10T01:28:14.763Z,63.38
2018-07-10T01:29:14.727Z,64.56
2018-07-10T01:30:14.734Z,65.05
2018-07-10T01:31:14.719Z,63.48
2018-07-10T01:32:14.720Z,61.46
2018-07-10T01:33:14.714Z,61.00
2018-07-10T01:34:14.710Z,63.76
2018-07-10T01:35:14.713Z,63.09
2018-07-10T01:36:14.715Z,63.60
2018-07-10T01:37:14.700Z,63.48
2018-07-10T01:38:14.712Z,64.15
2018-07-10T01:39:14.710Z,63.95
2018-07-10T01:40:14.700Z,64.43
2018-07-10T01:41:14.690Z,63.95
2018-07-10T01:42:14.697Z,62.51
2018-07-10T01:43:14.684Z,63.86
2018-07-10T01:44:14.680Z,63.48
2018-07-10T01:45:14.682Z,62.51
2018-07-10T01:46:14.680Z,62.99
2018-07-10T01:47:14.668Z,61.84
2018-07-10T01:48:14.669Z,62.99
2018-07-10T01:49:14.660Z,62.61
2018-07-10T01:50:14.657Z,62.13
2018-07-10T01:51:14.655Z,61.74
2018-07-10T01:52:14.652Z,62.03
2018-07-10T01:53:14.648Z,62.61
2018-07-10T01:54:14.648Z,62.90
2018-07-10T01:55:14.655Z,61.36
2018-07-10T01:56:14.637Z,62.80
2018-07-10T01:57:14.640Z,61.55
2018-07-10T01:58:14.632Z,60.30
2018-07-10T01:59:14.636Z,60.49
2018-07-10T02:00:14.623Z,61.55
2018-07-10T02:01:14.630Z,61.19
2018-07-10T02:02:14.620Z,62.03
2018-07-10T02:03:14.615Z,62.71
2018-07-10T02:04:14.659Z,63.28
2018-07-10T02:05:14.608Z,63.09
2018-07-10T02:06:14.610Z,63.38
2018-07-10T02:07:14.609Z,63.28
2018-07-10T02:08:14.595Z,64.53
2018-07-10T02:09:14.595Z,62.13
2018-07-10T02:10:14.589Z,63.57
2018-07-10T02:11:14.599Z,64.73
2018-07-10T02:12:14.582Z,61.55
2018-07-10T02:13:14.581Z,61.36
2018-07-10T02:14:14.576Z,61.26
2018-07-10T02:15:14.576Z,61.84
2018-07-10T02:16:14.574Z,62.51
2018-07-10T02:17:14.565Z,63.18
2018-07-10T02:18:14.573Z,63.28
2018-07-10T02:19:14.570Z,63.18
2018-07-10T02:20:14.556Z,64.34
2018-07-10T02:21:14.550Z,63.99
2018-07-10T02:22:14.552Z,62.61
2018-07-10T02:23:14.560Z,63.18
2018-07-10T02:24:14.547Z,62.03
2018-07-10T02:25:14.537Z,61.94
2018-07-10T02:26:14.543Z,64.25
2018-07-10T02:27:14.532Z,64.05
2018-07-10T02:28:14.527Z,63.38
2018-07-10T02:29:14.609Z,63.18
2018-07-10T02:30:14.523Z,63.86
2018-07-10T02:31:14.519Z,64.92
2018-07-10T02:32:14.530Z,64.25
2018-07-10T02:33:14.513Z,65.11
2018-07-10T02:34:14.509Z,67.42
2018-07-10T02:35:14.505Z,70.59
2018-07-10T02:36:14.505Z,69.76
2018-07-10T02:37:14.506Z,69.34
2018-07-10T02:38:14.498Z,70.40
2018-07-10T02:39:14.579Z,70.21
2018-07-10T02:40:14.488Z,71.20
2018-07-10T02:41:14.484Z,72.07
2018-07-10T02:42:14.484Z,71.97
2018-07-10T02:43:14.536Z,71.59
2018-07-10T02:44:14.473Z,72.32
2018-07-10T02:45:14.472Z,72.13
2018-07-10T02:46:14.475Z,72.32
2018-07-10T02:47:14.469Z,72.03
2018-07-10T02:48:14.460Z,72.32
2018-07-10T02:49:14.544Z,71.75
2018-07-10T02:50:14.455Z,71.71
2018-07-10T02:51:14.455Z,72.61
2018-07-10T02:52:14.451Z,72.67
2018-07-10T02:53:14.451Z,72.77
2018-07-10T02:54:14.443Z,73.83
2018-07-10T02:55:14.440Z,73.73
2018-07-10T02:56:14.435Z,73.83
2018-07-10T02:57:14.436Z,73.54
2018-07-10T02:58:14.437Z,74.79
2018-07-10T02:59:14.517Z,75.23
2018-07-10T03:00:14.428Z,75.71
2018-07-10T03:01:14.424Z,74.27
2018-07-10T03:02:14.416Z,74.94
2018-07-10T03:03:14.413Z,75.42
2018-07-10T03:04:14.417Z,75.81
2018-07-10T03:05:14.415Z,76.09
2018-07-10T03:06:14.402Z,75.42
2018-07-10T03:07:14.397Z,74.75
2018-07-10T03:08:14.402Z,76.48
2018-07-10T03:09:14.480Z,75.71
2018-07-10T03:10:14.387Z,75.13
2018-07-10T03:11:14.393Z,74.94
2018-07-10T03:12:14.383Z,75.04
2018-07-10T03:13:14.376Z,75.62
2018-07-10T03:14:14.376Z,75.62
2018-07-10T03:15:14.374Z,75.23
2018-07-10T03:16:14.453Z,74.94
2018-07-10T03:17:14.364Z,75.32
2018-07-10T03:18:14.364Z,74.65
2018-07-10T03:19:14.356Z,74.27
2018-07-10T03:20:14.349Z,74.27
2018-07-10T03:21:14.360Z,74.37
2018-07-10T03:22:14.353Z,74.37
2018-07-10T03:23:14.346Z,73.41
2018-07-10T03:24:14.346Z,73.21
2018-07-10T03:25:14.334Z,73.88
2018-07-10T03:26:14.395Z,74.17
2018-07-10T03:27:14.387Z,74.08
2018-07-10T03:28:14.328Z,74.37
2018-07-10T03:29:14.318Z,73.31
2018-07-10T03:30:14.319Z,73.11
2018-07-10T03:31:14.310Z,72.73
2018-07-10T03:32:14.315Z,72.92
2018-07-10T03:33:14.305Z,73.21
2018-07-10T03:34:14.308Z,73.98
2018-07-10T03:35:14.307Z,74.08
2018-07-10T03:36:14.311Z,74.85
2018-07-10T03:37:14.289Z,74.75
2018-07-10T03:38:14.285Z,75.62
2018-07-10T03:39:14.293Z,74.85
2018-07-10T03:40:14.287Z,74.94
2018-07-10T03:41:14.284Z,74.55
2018-07-10T03:42:14.276Z,74.55
2018-07-10T03:43:14.273Z,74.85
2018-07-10T03:44:14.269Z,76.09
2018-07-10T03:45:14.264Z,75.62
2018-07-10T03:46:14.332Z,74.37
2018-07-10T03:47:14.256Z,71.58
2018-07-10T03:48:14.261Z,71.58
2018-07-10T03:49:14.248Z,72.83
2018-07-10T03:50:14.296Z,73.21
2018-07-10T03:51:14.253Z,72.73
2018-07-10T03:52:14.251Z,72.73
2018-07-10T03:53:14.236Z,71.29
2018-07-10T03:54:14.235Z,71.96
2018-07-10T03:55:14.237Z,72.54
2018-07-10T03:56:14.300Z,72.44
2018-07-10T03:57:14.226Z,71.29
2018-07-10T03:58:14.218Z,71.67
2018-07-10T03:59:14.220Z,71.48
2018-07-10T04:00:14.209Z,71.48
2018-07-10T04:01:14.208Z,71.19
2018-07-10T04:02:14.204Z,71.39
2018-07-10T04:03:14.201Z,71.29
2018-07-10T04:04:14.195Z,71.77
2018-07-10T04:05:14.197Z,71.67
2018-07-10T04:06:14.267Z,71.77
2018-07-10T04:07:14.189Z,72.54
2018-07-10T04:08:14.185Z,71.87
2018-07-10T04:09:14.186Z,71.87
2018-07-10T04:10:14.183Z,71.67
2018-07-10T04:11:14.173Z,71.19
2018-07-10T04:12:14.171Z,71.77
2018-07-10T04:13:14.169Z,71.29
2018-07-10T04:14:14.168Z,71.10
2018-07-10T04:15:14.162Z,71.10
2018-07-10T04:16:14.239Z,70.72
2018-07-10T04:17:14.160Z,70.46
2018-07-10T04:18:14.149Z,70.46
2018-07-10T04:19:14.152Z,69.79
2018-07-10T04:20:14.153Z,69.79
2018-07-10T04:21:14.147Z,70.56
2018-07-10T04:22:14.137Z,71.04
2018-07-10T04:23:14.137Z,71.42
2018-07-10T04:24:14.131Z,70.56
2018-07-10T04:25:14.132Z,70.07
2018-07-10T04:26:14.207Z,69.98
2018-07-10T04:27:14.122Z,70.07
2018-07-10T04:28:14.118Z,69.60
2018-07-10T04:29:14.114Z,69.98
2018-07-10T04:30:14.114Z,70.17
2018-07-10T04:31:14.113Z,71.33
2018-07-10T04:32:14.107Z,71.14
2018-07-10T04:33:14.106Z,70.94
2018-07-10T04:34:14.101Z,70.75
2018-07-10T04:35:14.108Z,70.46
2018-07-10T04:36:14.096Z,71.23
2018-07-10T04:37:14.090Z,72.09
2018-07-10T04:38:14.102Z,71.26
2018-07-10T04:39:14.087Z,71.46
2018-07-10T04:40:14.092Z,72.23
2018-07-10T04:41:14.088Z,71.65
2018-07-10T04:42:14.140Z,71.26
2018-07-10T04:43:14.083Z,71.08
2018-07-10T04:44:14.073Z,71.46
2018-07-10T04:45:14.078Z,71.46
2018-07-10T04:46:14.073Z,71.84
2018-07-10T04:47:14.066Z,71.75
2018-07-10T04:48:14.061Z,71.75
2018-07-10T04:49:14.081Z,71.49
2018-07-10T04:50:14.064Z,71.59
2018-07-10T04:51:14.061Z,71.88
2018-07-10T04:52:14.063Z,71.65
2018-07-10T04:53:14.051Z,71.30
2018-07-10T04:54:14.044Z,71.30
2018-07-10T04:55:14.042Z,71.49
2018-07-10T04:56:14.037Z,71.49
2018-07-10T04:57:14.045Z,71.78
2018-07-10T04:58:14.040Z,71.20
2018-07-10T04:59:14.040Z,71.59
2018-07-10T05:00:14.029Z,71.88
2018-07-10T05:01:14.024Z,72.61
2018-07-10T05:02:14.027Z,72.13
2018-07-10T05:03:14.026Z,73.00
2018-07-10T05:04:14.015Z,73.28
2018-07-10T05:05:14.020Z,72.80
2018-07-10T05:06:14.010Z,72.90
2018-07-10T05:07:14.017Z,73.28
2018-07-10T05:08:14.004Z,73.67
2018-07-10T05:09:14.003Z,73.57
2018-07-10T05:10:14.003Z,73.96
2018-07-10T05:11:14.003Z,73.28
2018-07-10T05:12:13.994Z,73.00
2018-07-10T05:13:14.000Z,72.90
2018-07-10T05:14:13.989Z,73.67
2018-07-10T05:15:13.991Z,74.05
2018-07-10T05:16:13.991Z,73.19
2018-07-10T05:17:13.986Z,73.38
2018-07-10T05:18:13.977Z,72.23
2018-07-10T05:19:13.976Z,72.61
2018-07-10T05:20:13.971Z,72.23
2018-07-10T05:21:13.971Z,72.36
2018-07-10T05:22:13.970Z,71.55
2018-07-10T05:23:13.990Z,71.59
2018-07-10T05:24:13.966Z,71.20
2018-07-10T05:25:13.966Z,70.82
2018-07-10T05:26:13.958Z,70.59
2018-07-10T05:27:13.957Z,70.68
2018-07-10T05:28:13.956Z,71.55
2018-07-10T05:29:13.954Z,71.26
2018-07-10T05:30:13.947Z,71.08
2018-07-10T05:31:13.947Z,71.26
2018-07-10T05:32:13.940Z,71.84
2018-07-10T05:33:13.945Z,71.08
2018-07-10T05:34:13.940Z,71.75
2018-07-10T05:35:13.931Z,71.65
2018-07-10T05:36:13.927Z,71.17
2018-07-10T05:37:13.979Z,71.36
2018-07-10T05:38:13.923Z,70.78
2018-07-10T05:39:13.917Z,71.08
2018-07-10T05:40:13.914Z,71.40
2018-07-10T05:41:13.912Z,71.78
2018-07-10T05:42:13.956Z,71.01
2018-07-10T05:43:13.906Z,70.34
2018-07-10T05:44:13.902Z,70.15
2018-07-10T05:45:13.902Z,68.90
2018-07-10T05:46:13.906Z,68.22
2018-07-10T05:47:13.896Z,69.38
2018-07-10T05:48:13.898Z,68.90
2018-07-10T05:49:13.890Z,69.85
2018-07-10T05:50:13.894Z,69.63
2018-07-10T05:51:13.884Z,70.82
2018-07-10T05:52:13.892Z,70.68
2018-07-10T05:53:13.881Z,70.43
2018-07-10T05:54:13.877Z,70.34
2018-07-10T05:55:13.879Z,69.85
2018-07-10T05:56:13.870Z,70.05
2018-07-10T05:57:13.866Z,69.95
2018-07-10T05:58:13.873Z,69.57
2018-07-10T05:59:13.866Z,69.47
2018-07-10T06:00:13.858Z,70.05
2018-07-10T06:01:13.860Z,70.43
2018-07-10T06:02:13.862Z,70.92
2018-07-10T06:03:13.859Z,70.72
2018-07-10T06:04:13.848Z,71.40
2018-07-10T06:05:13.852Z,70.62
2018-07-10T06:06:13.850Z,71.49
2018-07-10T06:07:13.839Z,70.82
2018-07-10T06:08:13.836Z,70.95
2018-07-10T06:09:13.836Z,69.47
2018-07-10T06:10:13.831Z,69.79
2018-07-10T06:11:13.829Z,68.99
2018-07-10T06:12:13.825Z,69.47
2018-07-10T06:13:13.823Z,70.05
2018-07-10T06:14:13.823Z,70.92
2018-07-10T06:15:13.834Z,70.15
2018-07-10T06:16:13.900Z,70.82
2018-07-10T06:17:13.813Z,69.57
2018-07-10T06:18:13.823Z,70.24
2018-07-10T06:19:13.814Z,70.30
2018-07-10T06:20:13.805Z,71.08
2018-07-10T06:21:13.802Z,71.75
2018-07-10T06:22:13.853Z,71.49
2018-07-10T06:23:13.796Z,70.72
2018-07-10T06:24:13.802Z,69.85
2018-07-10T06:25:13.803Z,69.95
2018-07-10T06:26:13.789Z,69.47
2018-07-10T06:27:13.795Z,69.38
2018-07-10T06:28:13.827Z,70.09
2018-07-10T06:29:13.787Z,69.02
2018-07-10T06:30:13.806Z,69.51
2018-07-10T06:31:13.778Z,68.58
2018-07-10T06:32:13.769Z,66.94
2018-07-10T06:33:13.767Z,66.75
2018-07-10T06:34:13.774Z,66.39
2018-07-10T06:35:13.766Z,66.11
2018-07-10T06:36:13.761Z,65.63
2018-07-10T06:37:13.759Z,65.24
2018-07-10T06:38:13.756Z,64.37
2018-07-10T06:39:13.767Z,65.63
2018-07-10T06:40:13.757Z,64.76
2018-07-10T06:41:13.755Z,64.56
2018-07-10T06:42:13.749Z,64.37
2018-07-10T06:43:13.758Z,64.95
2018-07-10T06:44:13.749Z,64.08
2018-07-10T06:45:13.740Z,65.30
2018-07-10T06:46:13.750Z,66.65
2018-07-10T06:47:13.740Z,65.05
2018-07-10T06:48:13.738Z,65.88
2018-07-10T06:49:13.740Z,65.20
2018-07-10T06:50:13.728Z,65.81
2018-07-10T06:51:13.727Z,65.24
2018-07-10T06:52:13.812Z,64.95
2018-07-10T06:53:14.097Z,65.33
2018-07-10T06:54:13.722Z,65.30
2018-07-10T06:55:13.718Z,65.01
2018-07-10T06:56:13.724Z,65.11
2018-07-10T06:57:13.718Z,65.14
2018-07-10T06:58:13.712Z,65.72
2018-07-10T06:59:13.709Z,65.05
2018-07-10T07:00:13.706Z,64.95
2018-07-10T07:01:13.718Z,65.30
2018-07-10T07:02:13.708Z,65.40
2018-07-10T07:03:13.700Z,66.07
2018-07-10T07:04:13.710Z,65.69
2018-07-10T07:05:13.698Z,66.85
2018-07-10T07:06:13.692Z,66.81
2018-07-10T07:07:13.693Z,67.19
2018-07-10T07:08:13.699Z,67.13
2018-07-10T07:09:13.693Z,66.85
2018-07-10T07:10:13.686Z,67.23
2018-07-10T07:11:13.682Z,66.27
2018-07-10T07:12:13.685Z,67.13
2018-07-10T07:13:13.687Z,67.26
2018-07-10T07:14:13.676Z,65.78
2018-07-10T07:15:13.676Z,66.20
2018-07-10T07:16:13.671Z,66.97
2018-07-10T07:17:13.671Z,66.11
2018-07-10T07:18:13.674Z,65.24
2018-07-10T07:19:13.666Z,65.69
2018-07-10T07:20:13.670Z,66.27
2018-07-10T07:21:13.669Z,67.71
2018-07-10T07:22:13.672Z,67.94
2018-07-10T07:23:13.658Z,65.98
2018-07-10T07:24:13.656Z,67.23
2018-07-10T07:25:13.653Z,65.78
2018-07-10T07:26:13.656Z,65.88
2018-07-10T07:27:13.651Z,67.23
2018-07-10T07:28:13.651Z,67.52
2018-07-10T07:29:13.644Z,68.10
2018-07-10T07:30:13.641Z,66.85
2018-07-10T07:31:13.695Z,66.46
2018-07-10T07:32:13.636Z,66.27
2018-07-10T07:33:13.640Z,67.13
2018-07-10T07:34:13.634Z,66.85
2018-07-10T07:35:13.631Z,66.85
2018-07-10T07:36:13.635Z,66.75
2018-07-10T07:37:13.627Z,67.13
2018-07-10T07:38:13.623Z,67.81
2018-07-10T07:39:13.621Z,68.29
2018-07-10T07:40:13.617Z,67.26
2018-07-10T07:41:13.615Z,65.33
2018-07-10T07:42:13.624Z,65.53
2018-07-10T07:43:13.616Z,65.27
2018-07-10T07:44:13.618Z,64.50
2018-07-10T07:45:13.606Z,63.57
2018-07-10T07:46:13.616Z,63.24
2018-07-10T07:47:13.607Z,63.37
2018-07-10T07:48:13.601Z,63.57
2018-07-10T07:49:13.600Z,63.37
2018-07-10T07:50:13.597Z,62.73
2018-07-10T07:51:13.595Z,61.28
2018-07-10T07:52:13.593Z,60.80
2018-07-10T07:53:13.604Z,61.47
2018-07-10T07:54:13.590Z,60.83
2018-07-10T07:55:13.591Z,59.67
2018-07-10T07:56:13.586Z,59.89
2018-07-10T07:57:13.594Z,59.02
2018-07-10T07:58:13.584Z,58.54
2018-07-10T07:59:13.588Z,58.86
2018-07-10T08:00:13.583Z,57.70
2018-07-10T08:01:13.583Z,57.79
2018-07-10T08:02:13.581Z,58.37
2018-07-10T08:03:13.589Z,57.79
2018-07-10T08:04:13.578Z,56.93
2018-07-10T08:05:13.581Z,57.73
2018-07-10T08:06:13.586Z,56.86
2018-07-10T08:07:13.576Z,56.15
2018-07-10T08:08:13.576Z,57.57
2018-07-10T08:09:13.579Z,58.67
2018-07-10T08:10:13.581Z,58.95
2018-07-10T08:11:13.574Z,57.79
2018-07-10T08:12:13.572Z,57.89
2018-07-10T08:13:13.575Z,57.24
2018-07-10T08:14:13.573Z,56.18
2018-07-10T08:15:13.583Z,56.57
2018-07-10T08:16:13.576Z,56.50
2018-07-10T08:17:13.576Z,55.82
2018-07-10T08:18:13.579Z,55.92
2018-07-10T08:19:13.627Z,55.82
2018-07-10T08:20:13.572Z,55.34
2018-07-10T08:21:13.572Z,55.07
2018-07-10T08:22:13.572Z,54.39
2018-07-10T08:23:13.571Z,53.81
2018-07-10T08:24:13.576Z,53.23
2018-07-10T08:25:13.580Z,54.66
2018-07-10T08:26:13.570Z,54.85
2018-07-10T08:27:13.571Z,54.75
2018-07-10T08:28:13.579Z,55.79
2018-07-10T08:29:13.571Z,57.24
2018-07-10T08:30:13.571Z,56.40
2018-07-10T08:31:13.573Z,56.50
2018-07-10T08:32:13.584Z,56.11
2018-07-10T08:33:13.616Z,54.88
2018-07-10T08:34:13.581Z,54.43
2018-07-10T08:35:13.575Z,53.36
2018-07-10T08:36:13.574Z,53.00
2018-07-10T08:37:13.575Z,52.61
2018-07-10T08:38:13.576Z,51.74
2018-07-10T08:39:13.579Z,51.74
2018-07-10T08:40:13.576Z,51.09
2018-07-10T08:41:13.579Z,51.64
2018-07-10T08:42:13.587Z,51.64
2018-07-10T08:43:13.645Z,52.39
2018-07-10T08:44:13.579Z,52.78
2018-07-10T08:45:13.586Z,52.32
2018-07-10T08:46:13.586Z,52.44
2018-07-10T08:47:13.592Z,51.86
2018-07-10T08:48:13.594Z,51.28
2018-07-10T08:49:13.598Z,51.67
2018-07-10T08:50:13.597Z,51.47
2018-07-10T08:51:13.595Z,50.82
2018-07-10T08:52:13.636Z,50.24
2018-07-10T08:53:13.597Z,50.14
2018-07-10T08:54:13.597Z,50.43
2018-07-10T08:55:13.604Z,50.82
2018-07-10T08:56:13.599Z,50.43
2018-07-10T08:57:13.597Z,50.34
2018-07-10T08:58:13.597Z,51.04
2018-07-10T08:59:13.604Z,52.00
2018-07-10T09:00:13.611Z,53.17
2018-07-10T09:01:13.603Z,52.27
2018-07-10T09:02:13.603Z,52.95
2018-07-10T09:03:13.604Z,52.63
2018-07-10T09:04:13.616Z,54.25
2018-07-10T09:05:13.607Z,55.92
2018-07-10T09:06:13.610Z,53.89
2018-07-10T09:07:13.610Z,53.19
2018-07-10T09:08:13.611Z,53.79
2018-07-10T09:09:13.611Z,54.08
2018-07-10T09:10:13.621Z,54.69
2018-07-10T09:11:13.615Z,53.23
2018-07-10T09:12:13.616Z,53.02
2018-07-10T09:13:13.617Z,54.11
2018-07-10T09:14:13.630Z,54.11
2018-07-10T09:15:13.619Z,54.39
2018-07-10T09:16:13.626Z,53.45
2018-07-10T09:17:13.620Z,51.42
2018-07-10T09:18:13.620Z,51.06
2018-07-10T09:19:13.624Z,51.86
2018-07-10T09:20:13.624Z,50.96
2018-07-10T09:21:13.629Z,51.16
2018-07-10T09:22:13.639Z,50.57
2018-07-10T09:23:13.713Z,51.32
2018-07-10T09:24:13.638Z,53.26
2018-07-10T09:25:13.629Z,53.17
2018-07-10T09:26:13.642Z,52.12
2018-07-10T09:27:13.635Z,51.35
2018-07-10T09:28:13.636Z,50.41
2018-07-10T09:29:13.632Z,50.34
2018-07-10T09:30:13.637Z,49.58
2018-07-10T09:31:13.636Z,49.29
2018-07-10T09:32:13.646Z,48.52
2018-07-10T09:33:13.641Z,50.02
2018-07-10T09:34:13.643Z,50.21
2018-07-10T09:35:13.649Z,49.92
2018-07-10T09:36:13.653Z,49.70
2018-07-10T09:37:13.646Z,50.77
2018-07-10T09:38:13.709Z,50.38
2018-07-10T09:39:13.663Z,50.60
2018-07-10T09:40:13.663Z,50.02
2018-07-10T09:41:13.661Z,49.54
2018-07-10T09:42:13.661Z,50.21
2018-07-10T09:43:13.662Z,50.12
2018-07-10T09:44:13.713Z,50.12
2018-07-10T09:45:13.662Z,49.92
2018-07-10T09:46:13.662Z,48.78
2018-07-10T09:47:13.672Z,49.85
2018-07-10T09:48:13.669Z,49.85
2018-07-10T09:49:13.668Z,49.27
2018-07-10T09:50:13.680Z,48.78
2018-07-10T09:51:13.690Z,49.17
2018-07-10T09:52:13.675Z,49.37
2018-07-10T09:53:13.679Z,49.75
2018-07-10T09:54:13.678Z,49.27
2018-07-10T09:55:13.677Z,49.56
2018-07-10T09:56:13.691Z,49.95
2018-07-10T09:57:13.687Z,49.95
2018-07-10T09:58:13.684Z,49.85
2018-07-10T09:59:13.685Z,49.15
2018-07-10T10:00:13.686Z,50.21
2018-07-10T10:01:13.693Z,49.54
2018-07-10T10:02:13.690Z,49.73
2018-07-10T10:03:13.693Z,50.48
2018-07-10T10:04:13.702Z,51.13
2018-07-10T10:05:13.710Z,51.90
2018-07-10T10:06:13.710Z,51.68
2018-07-10T10:07:13.699Z,53.33
2018-07-10T10:08:13.702Z,53.79
2018-07-10T10:09:13.708Z,54.11
2018-07-10T10:10:13.705Z,54.11
2018-07-10T10:11:13.708Z,54.79
2018-07-10T10:12:13.702Z,54.21
2018-07-10T10:13:13.714Z,54.11
2018-07-10T10:14:13.713Z,53.91
2018-07-10T10:15:13.708Z,54.21
2018-07-10T10:16:13.716Z,53.14
2018-07-10T10:17:13.710Z,54.69
2018-07-10T10:18:13.710Z,54.98
2018-07-10T10:19:13.711Z,55.07
2018-07-10T10:20:13.713Z,54.52
2018-07-10T10:21:13.715Z,54.43
2018-07-10T10:22:13.726Z,52.32
2018-07-10T10:23:13.718Z,51.74
2018-07-10T10:24:13.716Z,51.35
2018-07-10T10:25:13.723Z,52.68
2018-07-10T10:26:13.720Z,52.97
2018-07-10T10:27:13.722Z,53.17
2018-07-10T10:28:13.754Z,54.39
2018-07-10T10:29:13.729Z,55.27
2018-07-10T10:30:13.723Z,54.21
2018-07-10T10:31:13.727Z,54.30
2018-07-10T10:32:13.731Z,53.81
2018-07-10T10:33:13.725Z,54.47
2018-07-10T10:34:13.728Z,54.73
2018-07-10T10:35:13.730Z,56.95
2018-07-10T10:36:13.729Z,57.73
2018-07-10T10:37:13.731Z,57.15
2018-07-10T10:38:13.733Z,56.30
2018-07-10T10:39:13.745Z,56.40
2018-07-10T10:40:13.745Z,55.63
2018-07-10T10:41:13.743Z,56.11
2018-07-10T10:42:13.734Z,56.47
2018-07-10T10:43:13.740Z,56.47
2018-07-10T10:44:13.733Z,57.34
2018-07-10T10:45:13.743Z,56.70
2018-07-10T10:46:13.736Z,56.34
2018-07-10T10:47:13.738Z,55.27
2018-07-10T10:48:13.745Z,54.71
2018-07-10T10:49:13.737Z,53.36
2018-07-10T10:50:13.740Z,53.00
2018-07-10T10:51:13.748Z,52.25
2018-07-10T10:52:13.741Z,52.64
2018-07-10T10:53:13.747Z,51.86
2018-07-10T10:54:13.741Z,50.72
2018-07-10T10:55:13.745Z,51.23
2018-07-10T10:56:13.743Z,49.87
2018-07-10T10:57:13.755Z,50.19
2018-07-10T10:58:13.746Z,48.35
2018-07-10T10:59:13.747Z,47.55
2018-07-10T11:00:13.756Z,48.32
2018-07-10T11:01:13.751Z,48.80
2018-07-10T11:02:13.764Z,48.54
2018-07-10T11:03:13.754Z,48.93
2018-07-10T11:04:13.758Z,48.71
2018-07-10T11:05:13.757Z,49.07
2018-07-10T11:06:13.759Z,48.71
2018-07-10T11:07:13.766Z,48.73
2018-07-10T11:08:13.769Z,48.64
2018-07-10T11:09:13.771Z,48.83
2018-07-10T11:10:13.764Z,48.44
2018-07-10T11:11:13.768Z,47.98
2018-07-10T11:12:13.767Z,48.35
2018-07-10T11:13:13.772Z,47.98
2018-07-10T11:14:13.775Z,47.11
2018-07-10T11:15:13.775Z,46.35
2018-07-10T11:16:13.777Z,46.35
2018-07-10T11:17:13.778Z,45.75
2018-07-10T11:18:13.788Z,46.25
2018-07-10T11:19:13.782Z,45.97
2018-07-10T11:20:13.787Z,46.15
2018-07-10T11:21:13.792Z,46.15
2018-07-10T11:22:13.794Z,45.38
2018-07-10T11:23:13.797Z,46.04
2018-07-10T11:24:13.807Z,45.57
2018-07-10T11:25:13.803Z,46.14
2018-07-10T11:26:13.799Z,46.42
2018-07-10T11:27:13.811Z,45.26
2018-07-10T11:28:13.804Z,44.56
2018-07-10T11:29:13.806Z,45.43
2018-07-10T11:30:13.810Z,45.94
2018-07-10T11:31:13.812Z,45.65
2018-07-10T11:32:13.816Z,44.58
2018-07-10T11:33:13.818Z,45.18
2018-07-10T11:34:13.832Z,45.38
2018-07-10T11:35:13.834Z,44.51
2018-07-10T11:36:13.831Z,45.18
2018-07-10T11:37:13.838Z,43.02
2018-07-10T11:38:13.833Z,44.31
2018-07-10T11:39:13.901Z,43.73
2018-07-10T11:40:13.845Z,43.54
2018-07-10T11:41:13.838Z,43.54
2018-07-10T11:42:13.840Z,44.21
2018-07-10T11:43:13.845Z,43.82
2018-07-10T11:44:13.846Z,42.95
2018-07-10T11:45:13.858Z,43.73
2018-07-10T11:46:13.860Z,44.09
2018-07-10T11:47:13.856Z,44.38
2018-07-10T11:48:13.856Z,45.55
2018-07-10T11:49:13.860Z,44.48
2018-07-10T11:50:13.879Z,44.60
2018-07-10T11:51:13.867Z,43.54
2018-07-10T11:52:13.870Z,43.65
2018-07-10T11:53:13.881Z,43.46
2018-07-10T11:54:13.875Z,41.78
2018-07-10T11:55:13.887Z,43.05
2018-07-10T11:56:13.889Z,44.21
2018-07-10T11:57:13.889Z,42.87
2018-07-10T11:58:13.888Z,42.39
2018-07-10T11:59:13.889Z,42.87
2018-07-10T12:00:13.900Z,42.97
2018-07-10T12:01:13.894Z,42.03
2018-07-10T12:02:13.950Z,43.41
2018-07-10T12:03:13.911Z,41.36
2018-07-10T12:04:14.051Z,42.23
2018-07-10T12:05:13.908Z,43.10
2018-07-10T12:06:13.910Z,44.17
2018-07-10T12:07:13.917Z,43.59
2018-07-10T12:08:13.928Z,42.81
2018-07-10T12:09:13.918Z,42.91
2018-07-10T12:10:13.923Z,43.01
2018-07-10T12:11:13.930Z,43.78
2018-07-10T12:12:13.925Z,43.59
2018-07-10T12:13:13.935Z,44.17
2018-07-10T12:14:13.932Z,42.61
2018-07-10T12:15:13.936Z,42.15
2018-07-10T12:16:13.935Z,41.08
2018-07-10T12:17:13.945Z,41.18
2018-07-10T12:18:13.941Z,39.82
2018-07-10T12:19:13.947Z,40.00
2018-07-10T12:20:13.944Z,40.39
2018-07-10T12:21:13.948Z,41.08
2018-07-10T12:22:13.950Z,41.38
2018-07-10T12:23:13.958Z,39.62
2018-07-10T12:24:13.962Z,39.92
2018-07-10T12:25:13.962Z,40.41
2018-07-10T12:26:13.961Z,40.21
2018-07-10T12:27:13.963Z,41.18
2018-07-10T12:28:13.966Z,39.75
2018-07-10T12:29:13.979Z,40.13
2018-07-10T12:30:13.968Z,39.94
2018-07-10T12:31:13.973Z,40.91
2018-07-10T12:32:13.976Z,41.39
2018-07-10T12:33:13.976Z,38.98
2018-07-10T12:34:13.983Z,39.16
2018-07-10T12:35:13.982Z,39.16
2018-07-10T12:36:13.987Z,39.08
2018-07-10T12:37:13.988Z,39.08
2018-07-10T12:38:13.993Z,37.92
2018-07-10T12:39:13.997Z,37.43
2018-07-10T12:40:14.003Z,37.72
2018-07-10T12:41:14.013Z,36.75
2018-07-10T12:42:14.015Z,36.96
2018-07-10T12:43:14.009Z,36.96
2018-07-10T12:44:14.009Z,36.38
2018-07-10T12:45:14.011Z,37.26
2018-07-10T12:46:14.020Z,37.27
2018-07-10T12:47:14.021Z,37.27
2018-07-10T12:48:14.022Z,37.18
2018-07-10T12:49:14.026Z,37.45
2018-07-10T12:50:14.027Z,38.23
2018-07-10T12:51:14.034Z,38.52
2018-07-10T12:52:14.038Z,38.62